createdAt,value
2019-02-08T00:04:32.947Z,73.33
2019-02-08T00:09:35.584Z,73.29
2019-02-08T00:14:38.850Z,73.29
2019-02-08T00:19:41.259Z,73.21
2019-02-08T00:24:43.834Z,73.16
2019-02-08T00:29:46.008Z,73.18
2019-02-08T00:34:48.176Z,73.11
2019-02-08T00:39:50.382Z,73.07
2019-02-08T00:44:52.574Z,73.17
2019-02-08T00:49:54.797Z,73.13
2019-02-08T00:54:58.614Z,73.21
2019-02-08T01:00:01.718Z,73.29
2019-02-08T01:05:08.603Z,73.31
2019-02-08T01:10:16.969Z,73.41
2019-02-08T01:15:20.290Z,73.54
2019-02-08T01:20:23.135Z,73.65
2019-02-08T01:25:26.356Z,73.93
2019-02-08T01:30:29.601Z,74.07
2019-02-08T01:35:32.087Z,74.13
2019-02-08T01:40:36.078Z,74.39
2019-02-08T01:45:38.333Z,74.37
2019-02-08T01:50:40.504Z,74.44
2019-02-08T01:55:43.049Z,74.28
2019-02-08T02:00:45.592Z,74.04
2019-02-08T02:05:48.246Z,73.90
2019-02-08T02:10:50.651Z,73.65
2019-02-08T02:15:53.038Z,73.59
2019-02-08T02:20:55.228Z,73.62
2019-02-08T02:25:57.880Z,73.74
2019-02-08T02:31:00.147Z,73.90
2019-02-08T02:36:03.726Z,74.09
2019-02-08T02:41:06.507Z,74.20
2019-02-08T02:46:09.218Z,74.28
2019-02-08T02:51:12.588Z,74.36
2019-02-08T02:56:14.773Z,74.45
2019-02-08T03:01:17.398Z,74.42
2019-02-08T03:06:21.615Z,74.43
2019-02-08T03:11:24.514Z,74.62
2019-02-08T03:16:27.117Z,74.44
2019-02-08T03:21:29.348Z,74.45
2019-02-08T03:26:32.529Z,74.47
2019-02-08T03:31:34.690Z,74.48
2019-02-08T03:36:37.223Z,74.47
2019-02-08T03:41:39.397Z,74.49
2019-02-08T03:46:41.904Z,74.47
2019-02-08T03:51:44.099Z,74.37
2019-02-08T03:56:47.789Z,74.42
2019-02-08T04:01:50.353Z,74.49
2019-02-08T04:06:53.256Z,74.36
2019-02-08T04:11:55.786Z,74.20
2019-02-08T04:16:58.348Z,74.13
2019-02-08T04:22:00.541Z,74.16
2019-02-08T04:27:03.556Z,74.31
2019-02-08T04:32:05.764Z,74.26
2019-02-08T04:37:08.361Z,74.23
2019-02-08T04:42:10.529Z,74.02
2019-02-08T04:47:13.042Z,74.03
2019-02-08T04:52:15.823Z,74.12
2019-02-08T04:57:19.376Z,74.16
2019-02-08T05:02:21.518Z,74.34
2019-02-08T05:07:23.992Z,74.45
2019-02-08T05:12:26.445Z,74.46
2019-02-08T05:17:28.741Z,74.56
2019-02-08T05:22:31.334Z,74.47
2019-02-08T05:27:34.658Z,74.53
2019-02-08T05:32:38.376Z,74.42
2019-02-08T05:37:40.563Z,74.41
2019-02-08T05:42:42.736Z,74.46
2019-02-08T05:47:45.036Z,74.61
2019-02-08T05:52:47.739Z,74.62
2019-02-08T05:57:50.796Z,74.79
2019-02-08T06:02:53.469Z,74.86
2019-02-08T06:07:56.296Z,74.84
2019-02-08T06:12:59.037Z,74.91
2019-02-08T06:18:01.737Z,74.99
2019-02-08T06:23:05.656Z,75.03
2019-02-08T06:28:08.742Z,75.05
2019-02-08T06:33:11.254Z,75.16
2019-02-08T06:38:14.992Z,75.00
2019-02-08T06:43:17.367Z,74.98
2019-02-08T06:48:20.195Z,75.03
2019-02-08T06:53:22.474Z,75.03
2019-02-08T06:58:37.848Z,74.93
2019-02-08T07:04:02.658Z,75.01
2019-02-08T07:09:15.795Z,74.94
2019-02-08T07:14:30.732Z,74.86
2019-02-08T07:19:59.631Z,75.02
2019-02-08T07:25:24.414Z,75.09
2019-02-08T07:30:55.488Z,75.02
2019-02-08T07:36:09.608Z,75.04
2019-02-08T07:41:23.962Z,75.02
2019-02-08T07:46:33.173Z,75.04
2019-02-08T07:51:56.557Z,74.74
2019-02-08T07:57:15.513Z,74.52
2019-02-08T08:02:26.469Z,74.05
2019-02-08T08:07:47.530Z,73.82
2019-02-08T08:13:15.681Z,73.56
2019-02-08T08:18:43.541Z,73.31
2019-02-08T08:24:12.678Z,73.12
2019-02-08T08:29:35.595Z,72.10
2019-02-08T08:35:04.708Z,71.43
2019-02-08T08:41:03.642Z,71.30
2019-02-08T08:46:45.255Z,70.87
2019-02-08T08:52:49.163Z,70.67
2019-02-08T08:58:26.332Z,69.62
2019-02-08T09:04:28.962Z,69.07
2019-02-08T09:10:30.059Z,67.29
2019-02-08T09:16:34.987Z,66.39
2019-02-08T09:22:12.621Z,66.94
2019-02-08T09:28:10.994Z,65.59
2019-02-08T09:33:58.803Z,62.94
2019-02-08T09:40:00.562Z,63.22
2019-02-08T09:45:56.357Z,61.80
2019-02-08T09:52:10.680Z,60.10
2019-02-08T09:58:30.474Z,58.97
2019-02-08T10:04:27.253Z,58.50
2019-02-08T10:10:35.396Z,55.79
2019-02-08T10:17:00.586Z,54.88
2019-02-08T10:22:58.985Z,53.67
2019-02-08T10:29:04.535Z,52.96
2019-02-08T10:35:32.080Z,53.34
2019-02-08T10:41:30.416Z,52.42
2019-02-08T10:47:15.042Z,52.70
2019-02-08T10:53:09.007Z,54.58
2019-02-08T10:59:20.380Z,55.96
2019-02-08T11:05:28.363Z,54.87
2019-02-08T11:11:17.542Z,56.14
2019-02-08T11:17:32.057Z,56.79
2019-02-08T11:22:34.637Z,56.89
2019-02-08T11:27:36.790Z,56.65
2019-02-08T11:32:43.165Z,56.79
2019-02-08T11:37:43.836Z,57.67
2019-02-08T11:42:46.348Z,56.54
2019-02-08T11:47:48.823Z,57.02
2019-02-08T11:52:51.476Z,57.82
2019-02-08T11:57:53.986Z,57.28
2019-02-08T12:02:56.501Z,57.83
2019-02-08T12:07:59.157Z,57.29
2019-02-08T12:13:01.793Z,57.00
2019-02-08T12:18:04.583Z,57.17
2019-02-08T12:23:07.457Z,57.16
2019-02-08T12:28:10.247Z,57.28
2019-02-08T12:33:13.936Z,57.44
2019-02-08T12:38:16.973Z,57.46
2019-02-08T12:43:39.438Z,57.16
2019-02-08T12:48:41.785Z,57.85
2019-02-08T12:53:44.036Z,58.01
2019-02-08T12:58:47.240Z,58.34
2019-02-08T13:03:49.560Z,58.13
2019-02-08T13:08:52.071Z,58.20
2019-02-08T13:13:54.357Z,58.27
2019-02-08T13:18:56.769Z,58.31
2019-02-08T13:23:59.344Z,58.68
2019-02-08T13:29:02.220Z,58.76
2019-02-08T13:34:05.177Z,58.60
2019-02-08T13:39:09.122Z,58.24
2019-02-08T13:44:13.462Z,58.00
2019-02-08T13:49:15.678Z,58.59
2019-02-08T13:54:18.016Z,58.24
2019-02-08T13:59:21.112Z,57.86
2019-02-08T14:04:23.896Z,56.66
2019-02-08T14:09:26.209Z,57.45
2019-02-08T14:14:29.164Z,57.71
2019-02-08T14:19:32.552Z,57.99
2019-02-08T14:24:35.121Z,58.25
2019-02-08T14:29:38.111Z,58.29
2019-02-08T14:34:43.701Z,57.70
2019-02-08T14:39:47.693Z,57.51
2019-02-08T14:44:50.312Z,57.56
2019-02-08T14:49:53.805Z,57.65
2019-02-08T14:54:56.401Z,57.15
2019-02-08T14:59:59.299Z,57.22
2019-02-08T15:05:02.140Z,57.66
2019-02-08T15:10:10.507Z,57.86
2019-02-08T15:15:13.424Z,58.11
2019-02-08T15:20:23.130Z,58.18
2019-02-08T15:25:26.210Z,58.52
2019-02-08T15:30:31.157Z,58.47
2019-02-08T15:35:35.152Z,58.58
2019-02-08T15:40:41.673Z,58.56
2019-02-08T15:45:51.879Z,58.71
2019-02-08T15:50:54.500Z,58.89
2019-02-08T15:56:02.883Z,58.71
2019-02-08T16:01:09.649Z,58.70
2019-02-08T16:06:12.093Z,58.73
2019-02-08T16:11:14.715Z,58.84
2019-02-08T16:16:17.652Z,58.88
2019-02-08T16:21:20.966Z,59.05
2019-02-08T16:26:24.794Z,59.15
2019-02-08T16:31:27.661Z,59.10
2019-02-08T16:36:30.196Z,59.17
2019-02-08T16:41:32.857Z,59.17
2019-02-08T16:46:35.549Z,59.12
2019-02-08T16:51:38.718Z,59.25
2019-02-08T16:56:41.094Z,59.02
2019-02-08T17:01:43.651Z,59.23
2019-02-08T17:06:46.292Z,59.33
2019-02-08T17:11:48.674Z,59.43
2019-02-08T17:16:51.030Z,59.49
2019-02-08T17:21:53.376Z,59.55
2019-02-08T17:26:56.697Z,59.85
2019-02-08T17:31:58.945Z,59.98
2019-02-08T17:37:01.197Z,60.07
2019-02-08T17:42:04.384Z,60.06
2019-02-08T17:47:06.882Z,60.13
2019-02-08T17:52:09.172Z,60.19
2019-02-08T17:57:11.862Z,60.16
2019-02-08T18:02:15.189Z,60.25
2019-02-08T18:07:17.536Z,60.43
2019-02-08T18:12:19.848Z,60.68
2019-02-08T18:17:22.448Z,60.71
2019-02-08T18:22:25.065Z,60.92
2019-02-08T18:27:27.448Z,60.83
2019-02-08T18:32:29.653Z,60.88
2019-02-08T18:37:32.391Z,60.98
2019-02-08T18:42:37.141Z,61.12
2019-02-08T18:47:40.039Z,61.32
2019-02-08T18:52:44.517Z,61.34
2019-02-08T18:57:47.320Z,61.55
2019-02-08T19:02:50.191Z,61.67
2019-02-08T19:07:53.188Z,61.80
2019-02-08T19:12:55.690Z,62.02
2019-02-08T19:17:58.083Z,62.26
2019-02-08T19:23:00.726Z,62.50
2019-02-08T19:28:05.728Z,62.68
2019-02-08T19:33:10.834Z,62.75
2019-02-08T19:38:13.828Z,63.00
2019-02-08T19:43:16.709Z,62.95
2019-02-08T19:48:20.833Z,63.03
2019-02-08T19:53:23.723Z,63.29
2019-02-08T19:58:34.091Z,63.21
2019-02-08T20:03:30.415Z,63.17
2019-02-08T20:08:32.702Z,63.04
2019-02-08T20:13:34.908Z,63.11
2019-02-08T20:18:37.131Z,63.06
2019-02-08T20:23:39.529Z,63.10
2019-02-08T20:28:42.769Z,62.91
2019-02-08T20:33:46.117Z,63.00
2019-02-08T20:38:48.654Z,62.92
2019-02-08T20:43:51.382Z,62.88
2019-02-08T20:48:54.314Z,62.70
2019-02-08T20:53:56.879Z,62.58
2019-02-08T20:58:59.767Z,62.46
2019-02-08T21:04:02.215Z,62.51
2019-02-08T21:09:12.408Z,62.50
2019-02-08T21:14:15.043Z,62.42
2019-02-08T21:19:17.677Z,62.42
2019-02-08T21:24:19.907Z,62.24
2019-02-08T21:29:22.464Z,62.33
2019-02-08T21:34:24.822Z,62.29
2019-02-08T21:39:27.684Z,62.23
2019-02-08T21:44:30.267Z,62.47
2019-02-08T21:49:33.143Z,62.47
2019-02-08T21:54:37.974Z,62.50
2019-02-08T21:59:40.631Z,62.66
2019-02-08T22:04:42.993Z,62.82
2019-02-08T22:09:45.818Z,62.91
2019-02-08T22:14:48.393Z,63.08
2019-02-08T22:19:50.682Z,63.37
2019-02-08T22:24:53.162Z,63.35
2019-02-08T22:29:55.514Z,63.50
2019-02-08T22:34:58.856Z,63.87
2019-02-08T22:40:01.297Z,64.12
2019-02-08T22:45:09.142Z,64.26
2019-02-08T22:50:12.357Z,64.26
2019-02-08T22:55:17.459Z,64.50
2019-02-08T23:01:26.912Z,64.70
2019-02-08T23:06:29.423Z,64.82
2019-02-08T23:11:32.282Z,64.84
2019-02-08T23:16:34.858Z,64.94
2019-02-08T23:21:37.319Z,65.03
2019-02-08T23:26:40.083Z,64.99
2019-02-08T23:31:42.666Z,64.92
2019-02-08T23:36:45.260Z,64.87
2019-02-08T23:41:48.646Z,64.92
2019-02-08T23:46:51.270Z,64.85
2019-02-08T23:51:54.993Z,64.60
2019-02-08T23:56:58.214Z,64.47
